Time;durP1;ratioP1;P1;durP2;ratioP2;P2;SDS_P1;SDS_P2;PMS_P1;PMS_P2;Temp;Humidity;BMP_temperature;BMP_pressure;BME280_temperature;BME280_humidity;BME280_pressure;Samples;Min_cycle;Max_cycle;Signal;HPM_P1;HPM_P2
2022/05/30 00:01:19;;;;;;;16.70;9.27;;;;;;;17.90;78.48;100060.00;5066013;28;20156;-82
2022/05/30 00:03:49;;;;;;;14.82;8.55;;;;;;;17.93;77.80;100070.44;5096903;28;20028;-83
2022/05/30 00:06:18;;;;;;;17.20;8.07;;;;;;;17.90;77.08;100060.00;5064715;28;20051;-81
2022/05/30 00:08:43;;;;;;;19.13;7.80;;;;;;;17.96;76.79;100057.44;5076542;28;20035;-82
2022/05/30 00:11:12;;;;;;;;;;;;;;;18.02;77.00;100062.00;5067720;28;20035;-83
2022/05/30 00:13:38;;;;;;;15.60;8.70;;;;;;;17.99;77.59;100063.28;5074422;28;19937;-82
2022/05/30 00:16:14;;;;;;;15.23;9.00;;;;;;;18.02;77.53;100054.66;5066925;28;20019;-84
2022/05/30 00:18:40;;;;;;;18.95;8.85;;;;;;;18.02;78.15;100056.56;5082082;28;20051;-84
2022/05/30 00:21:06;;;;;;;;;;;;;;;17.98;78.77;100066.22;5069328;28;20091;-84
2022/05/30 00:23:33;;;;;;;16.98;9.05;;;;;;;17.97;79.26;100053.69;5084253;28;19996;-84
2022/05/30 00:26:06;;;;;;;19.55;9.25;;;;;;;18.02;78.49;100051.13;5067110;28;20040;-85
2022/05/30 00:28:32;;;;;;;19.08;9.05;;;;;;;18.11;77.90;100047.88;5073463;28;20054;-84
2022/05/30 00:31:02;;;;;;;;;;;;;;;18.09;79.17;100055.41;5072038;28;20381;-85
2022/05/30 00:33:32;;;;;;;17.77;9.20;;;;;;;18.03;79.35;100047.34;5062915;28;19919;-84
2022/05/30 00:36:00;;;;;;;14.57;9.35;;;;;;;18.10;79.28;100067.16;5091559;28;20054;-84
2022/05/30 00:38:28;;;;;;;18.92;10.18;;;;;;;18.05;79.30;100054.22;5073011;28;20030;-84
2022/05/30 00:40:55;;;;;;;23.92;10.80;;;;;;;18.09;79.24;100060.03;5081899;28;20032;-85
2022/05/30 00:44:01;;;;;;;17.02;10.65;;;;;;;18.22;78.74;100061.81;5075410;28;20047;-83
2022/05/30 00:46:32;;;;;;;21.48;10.00;;;;;;;18.21;78.56;100055.50;5106319;28;20020;-83
2022/05/30 00:49:06;;;;;;;20.02;12.25;;;;;;;18.09;80.07;100057.31;5087646;28;20505;-84
2022/05/30 00:51:33;;;;;;;18.67;12.20;;;;;;;18.10;79.68;100053.56;5098663;28;20032;-84
2022/05/30 00:54:01;;;;;;;18.90;11.98;;;;;;;18.01;79.02;100019.53;5081493;28;20035;-83
2022/05/30 00:56:28;;;;;;;;;;;;;;;18.24;78.76;100027.88;5083226;28;20060;-85
2022/05/30 00:58:55;;;;;;;20.17;11.30;;;;;;;18.21;78.71;100036.47;5071768;28;20303;-85
2022/05/30 01:01:21;;;;;;;20.27;10.30;;;;;;;18.18;78.38;100036.91;5077198;28;20036;-85
2022/05/30 01:06:34;;;;;;;22.65;11.23;;;;;;;18.21;78.88;100039.19;5116593;28;19922;-85
2022/05/30 01:09:02;;;;;;;;;;;;;;;18.24;78.67;100033.31;5082568;28;20039;-84
2022/05/30 01:11:45;;;;;;;24.17;10.10;;;;;;;18.22;77.65;100038.13;5081719;28;19912;-85
2022/05/30 01:14:15;;;;;;;18.50;9.60;;;;;;;18.23;77.69;100034.34;5081544;28;20093;-84
2022/05/30 01:16:43;;;;;;;19.27;8.80;;;;;;;18.18;77.49;100020.59;5075895;28;20055;-84
2022/05/30 01:19:32;;;;;;;15.75;8.70;;;;;;;18.28;77.39;100033.66;5081328;28;20052;-83
2022/05/30 01:21:58;;;;;;;16.45;9.18;;;;;;;18.26;76.85;100024.91;5113455;28;20065;-84
2022/05/30 01:24:30;;;;;;;;;;;;;;;18.33;77.15;100031.94;5082025;28;20052;-83
2022/05/30 01:27:08;;;;;;;13.57;8.55;;;;;;;18.34;77.01;100014.56;5089041;28;19931;-84
2022/05/30 01:29:38;;;;;;;17.15;8.32;;;;;;;18.27;76.14;99989.31;5080182;28;20039;-83
2022/05/30 01:32:16;;;;;;;18.33;8.68;;;;;;;18.24;76.70;100007.97;5076314;28;20122;-85
2022/05/30 01:34:46;;;;;;;16.13;8.82;;;;;;;18.17;76.99;100023.53;5085756;28;20034;-84
2022/05/30 01:37:12;;;;;;;18.40;9.70;;;;;;;18.21;76.88;100022.84;5068152;28;20046;-84
2022/05/30 01:39:37;;;;;;;19.52;8.77;;;;;;;18.22;76.71;100010.09;5082073;28;20123;-84
2022/05/30 01:42:03;;;;;;;;;;;;;;;18.31;75.88;100006.84;5072680;28;20571;-84
2022/05/30 01:44:28;;;;;;;;;;;;;;;18.20;76.92;100009.50;5069333;28;19922;-84
2022/05/30 01:46:55;;;;;;;;;;;;;;;18.16;77.36;100005.56;5074507;28;19959;-84
2022/05/30 01:49:23;;;;;;;20.95;9.43;;;;;;;18.07;77.77;99999.59;5096355;28;20371;-84
2022/05/30 01:51:48;;;;;;;18.50;9.57;;;;;;;18.04;77.74;99992.72;5076855;28;20031;-84
2022/05/30 01:54:14;;;;;;;;;;;;;;;18.20;77.67;100020.38;5071502;28;20032;-84
2022/05/30 01:56:41;;;;;;;18.38;9.40;;;;;;;18.09;78.33;100013.78;5097832;28;19915;-84
2022/05/30 01:59:14;;;;;;;20.80;10.30;;;;;;;18.14;78.15;100028.41;5072466;28;20035;-85
2022/05/30 02:01:42;;;;;;;23.55;9.70;;;;;;;18.16;77.89;100017.28;5089623;28;20039;-85
2022/05/30 02:04:12;;;;;;;18.60;10.05;;;;;;;18.01;78.31;100003.22;5085522;28;20036;-84
2022/05/30 02:06:40;;;;;;;20.42;10.05;;;;;;;17.99;78.04;100008.88;5110658;28;20035;-83
2022/05/30 02:09:06;;;;;;;19.95;9.90;;;;;;;18.04;78.00;100019.09;5086663;28;20073;-84
2022/05/30 02:11:33;;;;;;;;;;;;;;;18.12;78.01;100026.94;5062970;28;20044;-85
2022/05/30 02:13:59;;;;;;;17.10;10.75;;;;;;;18.03;78.63;100031.84;5068410;28;19916;-85
2022/05/30 02:19:09;;;;;;;17.60;10.90;;;;;;;18.03;78.98;100044.63;5097912;28;19927;-84
2022/05/30 02:21:38;;;;;;;20.35;11.15;;;;;;;17.86;79.95;100042.50;5095235;28;20032;-84
2022/05/30 02:24:05;;;;;;;18.30;10.98;;;;;;;17.99;79.53;100046.13;5091785;28;20048;-85
2022/05/30 02:26:37;;;;;;;21.95;11.73;;;;;;;17.91;79.51;100030.91;5075734;28;20032;-85
2022/05/30 02:29:03;;;;;;;21.73;12.18;;;;;;;18.05;79.00;100046.06;5084430;28;20039;-85
2022/05/30 02:31:28;;;;;;;;;;;;;;;18.18;78.66;100049.69;5060308;28;20067;-85
2022/05/30 02:36:44;;;;;;;17.38;10.60;;;;;;;18.18;78.43;100047.81;5101621;28;20066;-85
2022/05/30 02:39:17;;;;;;;19.90;11.68;;;;;;;18.08;78.78;100036.63;5098266;28;20051;-84
2022/05/30 02:41:47;;;;;;;24.38;12.30;;;;;;;18.14;79.03;100046.59;5089786;28;20066;-85
2022/05/30 02:44:17;;;;;;;22.38;11.48;;;;;;;18.26;78.61;100060.28;5079737;28;20048;-85
2022/05/30 02:46:43;;;;;;;25.77;11.43;;;;;;;18.25;78.27;100050.47;5090816;28;20095;-85
2022/05/30 02:49:09;;;;;;;;;;;;;;;18.35;77.88;100059.78;5088775;28;20488;-85
2022/05/30 02:51:36;;;;;;;19.40;10.45;;;;;;;18.31;77.62;100053.09;5108808;28;19919;-84
2022/05/30 02:54:02;;;;;;;23.00;11.27;;;;;;;18.30;77.51;100053.31;5083729;28;20092;-85
2022/05/30 02:56:28;;;;;;;;;;;;;;;18.29;78.66;100060.66;5056086;28;20027;-85
2022/05/30 02:58:54;;;;;;;19.02;10.90;;;;;;;18.12;79.42;100040.53;5090689;28;19914;-85
2022/05/30 03:01:21;;;;;;;;;;;;;;;18.22;79.24;100067.25;5060277;28;20023;-85
2022/05/30 03:03:48;;;;;;;24.70;11.35;;;;;;;18.28;79.18;100078.03;5085105;28;19931;-85
2022/05/30 03:06:14;;;;;;;21.83;9.25;;;;;;;18.35;77.61;100073.38;5098946;28;20038;-85
2022/05/30 03:08:41;;;;;;;;;;;;;;;18.32;79.22;100075.69;5074953;28;20051;-83
2022/05/30 03:11:08;;;;;;;22.15;11.82;;;;;;;18.40;79.01;100080.00;5074796;28;20415;-85
2022/05/30 03:13:39;;;;;;;17.42;11.70;;;;;;;18.49;78.60;100067.75;5068685;28;20043;-85
2022/05/30 03:16:06;;;;;;;21.75;11.63;;;;;;;18.48;78.44;100049.78;5102396;28;20045;-84
2022/05/30 03:18:32;;;;;;;22.00;11.70;;;;;;;18.48;77.79;100039.72;5084704;28;20097;-87
2022/05/30 03:20:57;;;;;;;;;;;;;;;18.69;77.35;100068.34;5098733;28;20043;-84
2022/05/30 03:23:26;;;;;;;22.05;11.77;;;;;;;18.55;77.65;100055.97;5076572;28;19916;-85
2022/05/30 03:25:56;;;;;;;25.92;12.00;;;;;;;18.68;77.91;100054.97;5078817;28;20040;-85
2022/05/30 03:28:22;;;;;;;26.05;12.10;;;;;;;18.82;77.40;100064.66;5066078;28;20047;-86
2022/05/30 03:30:50;;;;;;;30.73;12.30;;;;;;;18.70;77.00;100048.22;5082427;28;20071;-85
2022/05/30 03:33:18;;;;;;;28.85;12.63;;;;;;;18.81;77.20;100067.63;5072787;28;20032;-86
2022/05/30 03:35:45;;;;;;;;;;;;;;;19.05;77.01;100077.53;5095544;28;20051;-83
2022/05/30 03:38:13;;;;;;;28.92;13.52;;;;;;;19.07;77.04;100072.69;5085366;28;19915;-84
2022/05/30 03:40:39;;;;;;;37.28;14.80;;;;;;;19.15;76.68;100087.88;5061536;28;20472;-83
2022/05/30 03:43:07;;;;;;;36.15;15.25;;;;;;;19.21;76.60;100086.16;5089905;28;20095;-82
2022/05/30 03:45:34;;;;;;;29.40;15.48;;;;;;;19.31;76.34;100087.22;5085166;28;20035;-84
2022/05/30 03:48:00;;;;;;;35.92;16.15;;;;;;;19.31;76.23;100070.06;5089018;28;20423;-86
2022/05/30 03:50:25;;;;;;;;;;;;;;;19.45;75.46;100082.41;5068682;28;20024;-85
2022/05/30 03:52:52;;;;;;;42.22;15.35;;;;;;;19.45;75.67;100087.03;5074774;28;19930;-87
2022/05/30 03:55:24;;;;;;;35.20;16.52;;;;;;;19.22;76.05;100071.44;5080106;28;20040;-86
2022/05/30 03:57:51;;;;;;;38.70;16.05;;;;;;;19.30;76.13;100076.56;5090121;28;20423;-86
2022/05/30 04:00:22;;;;;;;38.75;14.85;;;;;;;19.39;75.51;100084.19;5062687;28;20499;-84
2022/05/30 04:02:53;;;;;;;34.42;13.85;;;;;;;19.18;75.55;100071.09;5105206;27;20027;-85
2022/05/30 04:05:21;;;;;;;35.08;15.23;;;;;;;19.24;75.25;100080.22;5092115;28;20063;-85
2022/05/30 04:07:48;;;;;;;27.48;14.25;;;;;;;19.23;75.51;100092.19;5104682;28;20172;-85
2022/05/30 04:10:14;;;;;;;;;;;;;;;19.34;75.30;100085.97;5072064;28;20126;-85
2022/05/30 04:12:42;;;;;;;28.90;14.38;;;;;;;19.30;75.59;100091.03;5081081;28;19923;-85
2022/05/30 04:15:13;;;;;;;27.48;15.15;;;;;;;19.38;75.48;100098.03;5066226;28;20051;-86
2022/05/30 04:17:41;;;;;;;35.03;15.48;;;;;;;19.35;75.23;100082.97;5090846;27;20051;-89
2022/05/30 04:20:19;;;;;;;30.15;15.02;;;;;;;19.57;74.61;100094.19;5074773;28;20500;-85
2022/05/30 04:22:48;;;;;;;33.83;16.55;;;;;;;19.63;74.73;100088.88;5072049;28;20045;-86
2022/05/30 04:25:17;;;;;;;30.70;15.13;;;;;;;19.82;74.72;100083.09;5084497;28;20040;-87
2022/05/30 04:27:48;;;;;;;30.92;14.88;;;;;;;19.99;73.37;100085.97;5094776;28;20108;-87
2022/05/30 04:30:20;;;;;;;34.45;14.02;;;;;;;20.15;72.77;100075.41;5083852;28;20068;-86
2022/05/30 04:32:48;;;;;;;34.72;14.27;;;;;;;20.32;73.05;100075.50;5106181;28;20024;-87
2022/05/30 04:35:17;;;;;;;37.05;14.50;;;;;;;20.59;72.06;100068.47;5100510;28;20032;-84
2022/05/30 04:37:45;;;;;;;34.45;14.18;;;;;;;20.77;72.04;100067.47;5074304;28;20495;-83
2022/05/30 04:40:13;;;;;;;40.22;14.27;;;;;;;20.96;71.37;100059.94;5071698;28;20052;-84
2022/05/30 04:42:41;;;;;;;47.10;14.75;;;;;;;21.07;71.16;100052.72;5079458;28;20050;-84
2022/05/30 04:45:09;;;;;;;35.70;13.80;;;;;;;21.40;70.56;100059.38;5074184;28;20028;-87
2022/05/30 04:47:39;;;;;;;38.67;13.95;;;;;;;21.63;69.78;100056.50;5062423;28;20020;-82
2022/05/30 04:50:13;;;;;;;38.03;14.05;;;;;;;21.63;69.66;100064.72;5090052;28;20472;-83
2022/05/30 04:52:41;;;;;;;37.53;12.40;;;;;;;21.97;68.70;100064.69;5066033;28;20051;-82
2022/05/30 04:55:09;;;;;;;35.72;12.38;;;;;;;22.26;68.03;100072.78;5076376;28;20097;-83
2022/05/30 04:57:47;;;;;;;47.00;13.27;;;;;;;22.22;66.13;100077.09;5048009;28;20145;-85
2022/05/30 05:00:17;;;;;;;48.03;13.27;;;;;;;22.40;66.35;100078.72;5080846;28;20036;-83
2022/05/30 05:02:42;;;;;;;40.25;13.10;;;;;;;22.65;65.22;100076.31;5080550;28;20047;-84
2022/05/30 05:05:10;;;;;;;37.70;13.68;;;;;;;22.96;65.15;100095.88;5057993;28;20100;-82
2022/05/30 05:07:45;;;;;;;45.45;13.70;;;;;;;23.09;63.70;100084.53;5066501;28;20154;-85
2022/05/30 05:10:28;;;;;;;34.70;12.10;;;;;;;23.44;62.28;100102.44;5075811;28;20134;-85
2022/05/30 05:12:58;;;;;;;24.52;10.93;;;;;;;23.48;60.27;100109.03;5085046;28;20115;-83
2022/05/30 05:15:24;;;;;;;29.60;11.02;;;;;;;23.78;60.64;100114.00;5061101;28;20036;-84
2022/05/30 05:17:50;;;;;;;31.55;11.00;;;;;;;23.91;59.40;100120.16;5066916;28;20125;-84
2022/05/30 05:20:16;;;;;;;43.15;10.88;;;;;;;23.99;59.43;100116.94;5083473;28;20052;-84
2022/05/30 05:22:41;;;;;;;24.98;10.77;;;;;;;24.05;58.01;100095.84;5068766;28;20029;-84
2022/05/30 05:25:13;;;;;;;34.13;10.68;;;;;;;24.40;58.17;100131.78;5079839;28;20048;-85
2022/05/30 05:27:39;;;;;;;32.85;10.88;;;;;;;24.53;57.08;100122.25;5095258;28;20032;-84
2022/05/30 05:30:07;;;;;;;29.13;12.82;;;;;;;24.85;54.62;100127.63;5064030;28;20032;-83
2022/05/30 05:32:32;;;;;;;24.30;9.98;;;;;;;24.87;54.07;100132.88;5076073;28;20035;-84
2022/05/30 05:35:01;;;;;;;31.80;12.25;;;;;;;24.89;54.88;100127.06;5076471;28;20072;-85
2022/05/30 05:37:28;;;;;;;25.63;9.52;;;;;;;24.93;54.82;100133.69;5086107;28;20036;-83
2022/05/30 05:39:55;;;;;;;26.67;8.75;;;;;;;24.85;53.95;100124.88;5081024;28;20036;-85
2022/05/30 05:42:20;;;;;;;48.15;9.57;;;;;;;24.90;54.77;100148.81;5107782;28;20090;-83
2022/05/30 05:44:46;;;;;;;39.45;9.27;;;;;;;24.83;54.45;100159.22;5070982;28;20419;-83
2022/05/30 05:47:11;;;;;;;17.65;7.45;;;;;;;24.57;53.72;100164.59;5074713;28;20028;-84
2022/05/30 05:49:38;;;;;;;32.78;9.07;;;;;;;24.21;55.05;100169.81;5068081;28;20123;-84
2022/05/30 05:52:06;;;;;;;30.25;9.77;;;;;;;24.14;56.25;100163.72;5058816;28;20036;-85
2022/05/30 05:54:33;;;;;;;40.30;10.85;;;;;;;24.29;56.39;100162.19;5067023;28;20055;-81
2022/05/30 05:57:03;;;;;;;33.22;10.90;;;;;;;24.53;56.33;100177.19;5069349;28;20032;-84
2022/05/30 05:59:29;;;;;;;68.50;13.88;;;;;;;24.52;56.52;100178.31;5079652;28;20501;-85
2022/05/30 06:01:56;;;;;;;45.88;15.27;;;;;;;24.57;55.58;100183.84;5068107;28;20085;-85
2022/05/30 06:04:25;;;;;;;33.90;18.13;;;;;;;24.42;54.32;100186.47;5090896;28;20280;-85
2022/05/30 06:07:03;;;;;;;38.25;19.30;;;;;;;24.56;54.18;100173.94;5074740;28;20043;-80
2022/05/30 06:09:30;;;;;;;53.13;22.00;;;;;;;24.80;54.09;100179.84;5069908;28;20142;-80
2022/05/30 06:11:57;;;;;;;45.08;21.33;;;;;;;24.90;54.17;100181.81;5071751;28;20044;-80
2022/05/30 06:14:23;;;;;;;60.08;22.75;;;;;;;25.23;54.06;100179.78;5082984;28;20432;-82
2022/05/30 06:16:49;;;;;;;74.97;19.95;;;;;;;25.43;53.21;100157.00;5076797;28;20028;-81
2022/05/30 06:19:15;;;;;;;40.33;16.58;;;;;;;25.98;52.29;100179.41;5066924;28;20107;-81
2022/05/30 06:21:40;;;;;;;33.65;14.75;;;;;;;26.12;51.10;100180.50;5059648;28;20544;-82
2022/05/30 06:24:08;;;;;;;36.35;16.08;;;;;;;26.33;50.11;100182.13;5064597;28;20039;-80
2022/05/30 06:26:34;;;;;;;32.88;16.67;;;;;;;26.54;49.95;100195.91;5074522;28;20030;-82
2022/05/30 06:29:02;;;;;;;50.13;16.95;;;;;;;26.73;49.70;100196.97;5076981;28;20032;-81
2022/05/30 06:31:29;;;;;;;43.10;15.70;;;;;;;27.03;49.17;100192.47;5062763;28;20180;-82
2022/05/30 06:33:55;;;;;;;47.00;14.63;;;;;;;27.35;48.08;100202.28;5070498;28;20496;-81
2022/05/30 06:36:22;;;;;;;39.28;13.75;;;;;;;27.55;47.43;100213.19;5099289;28;20032;-81
2022/05/30 06:38:48;;;;;;;32.00;10.65;;;;;;;27.58;46.47;100211.81;5060112;28;20093;-81
2022/05/30 06:41:19;;;;;;;29.65;8.90;;;;;;;27.84;45.10;100215.28;5066050;28;20032;-81
2022/05/30 06:43:45;;;;;;;24.05;8.15;;;;;;;27.82;44.38;100224.94;5071563;28;20028;-80
2022/05/30 06:46:11;;;;;;;18.98;8.20;;;;;;;27.62;45.86;100225.88;5082025;28;20036;-81
2022/05/30 06:48:37;;;;;;;29.30;11.43;;;;;;;28.08;45.43;100220.91;5060685;28;20035;-82
2022/05/30 06:51:04;;;;;;;22.92;10.23;;;;;;;28.06;45.22;100230.59;5103709;27;20031;-82
2022/05/30 06:53:43;;;;;;;20.42;10.35;;;;;;;28.12;44.50;100234.94;5057198;28;20036;-83
2022/05/30 06:56:21;;;;;;;28.20;10.60;;;;;;;28.11;44.90;100236.91;5072659;28;20040;-84
2022/05/30 06:58:50;;;;;;;22.73;12.00;;;;;;;28.01;45.05;100231.44;5066036;28;20141;-82
2022/05/30 07:01:19;;;;;;;25.40;13.10;;;;;;;27.94;45.72;100248.34;5076020;28;20040;-81
2022/05/30 07:03:45;;;;;;;30.63;13.68;;;;;;;27.90;45.62;100241.75;5084622;28;20028;-84
2022/05/30 07:06:17;;;;;;;21.73;12.10;;;;;;;28.03;44.62;100250.53;5082147;28;20717;-84
2022/05/30 07:08:48;;;;;;;27.08;12.20;;;;;;;28.37;43.58;100245.78;5080747;28;20545;-88
2022/05/30 07:11:30;;;;;;;25.00;11.88;;;;;;;28.19;43.38;100254.81;5090667;28;20050;-84
2022/05/30 07:14:00;;;;;;;22.40;10.23;;;;;;;28.16;43.90;100244.31;5103540;28;20043;-84
2022/05/30 07:16:31;;;;;;;20.73;9.90;;;;;;;28.44;43.37;100245.47;5096403;28;20034;-85
2022/05/30 07:19:20;;;;;;;17.83;7.95;;;;;;;28.67;43.59;100243.09;5084001;28;20040;-83
2022/05/30 07:22:10;;;;;;;26.45;7.68;;;;;;;29.18;42.31;100248.09;5082966;28;20048;-84
2022/05/30 07:24:54;;;;;;;15.48;7.00;;;;;;;28.99;42.02;100231.41;5084742;28;20040;-86
2022/05/30 07:27:29;;;;;;;26.30;7.30;;;;;;;29.15;42.32;100248.66;5068804;28;20048;-85
2022/05/30 07:29:57;;;;;;;12.95;7.05;;;;;;;29.56;41.67;100237.06;5078512;28;20037;-84
2022/05/30 07:32:29;;;;;;;9.48;6.28;;;;;;;29.44;41.18;100248.59;5073267;28;20040;-84
2022/05/30 07:34:56;;;;;;;18.73;6.80;;;;;;;29.09;41.71;100228.53;5069284;28;20086;-86
2022/05/30 07:37:45;;;;;;;12.80;6.63;;;;;;;29.43;41.59;100238.63;5081251;28;20024;-84
2022/05/30 07:40:12;;;;;;;13.88;7.10;;;;;;;29.13;41.31;100228.78;5075332;28;20044;-85
2022/05/30 07:42:41;;;;;;;12.50;6.60;;;;;;;29.02;42.06;100247.41;5044025;28;20032;-86
2022/05/30 07:45:09;;;;;;;11.73;6.50;;;;;;;29.53;41.11;100244.03;5077257;28;20082;-89
2022/05/30 07:47:35;;;;;;;18.75;7.63;;;;;;;29.95;40.43;100247.91;5077880;28;20473;-89
2022/05/30 07:50:06;;;;;;;22.42;7.25;;;;;;;30.21;39.98;100230.84;5084963;28;20034;-89
2022/05/30 07:52:33;;;;;;;17.60;6.93;;;;;;;30.41;39.38;100241.59;5100052;28;20027;-87
2022/05/30 07:55:16;;;;;;;16.05;6.63;;;;;;;30.38;39.51;100230.31;5082348;28;20213;-91
2022/05/30 07:57:59;;;;;;;20.83;6.50;;;;;;;30.71;38.96;100239.41;5072539;28;20051;-86
2022/05/30 08:00:32;;;;;;;14.23;6.80;;;;;;;29.99;39.67;100237.88;5073927;28;20070;-83
2022/05/30 08:03:01;;;;;;;12.50;6.53;;;;;;;30.36;39.68;100249.22;5087913;28;20067;-83
2022/05/30 08:05:49;;;;;;;11.52;6.53;;;;;;;29.90;39.83;100260.97;5074765;28;20125;-87
2022/05/30 08:08:25;;;;;;;15.90;7.50;;;;;;;30.12;39.51;100249.31;5073201;28;20048;-85
2022/05/30 08:10:52;;;;;;;12.02;6.60;;;;;;;30.28;39.22;100248.78;5061182;28;20028;-83
2022/05/30 08:13:22;;;;;;;19.70;7.90;;;;;;;30.24;39.57;100258.78;5069610;28;20032;-84
2022/05/30 08:15:49;;;;;;;14.88;6.95;;;;;;;30.32;39.47;100254.56;5089456;28;20036;-83
2022/05/30 08:18:20;;;;;;;22.38;7.03;;;;;;;30.57;38.69;100260.78;5074282;28;20064;-83
2022/05/30 08:20:51;;;;;;;14.95;6.85;;;;;;;30.28;39.12;100268.19;5066511;28;20044;-84
2022/05/30 08:23:18;;;;;;;13.85;7.22;;;;;;;29.26;39.96;100252.94;5087654;28;20044;-84
2022/05/30 08:25:45;;;;;;;23.38;7.93;;;;;;;29.01;41.08;100249.34;5079835;28;20070;-85
2022/05/30 08:28:41;;;;;;;18.23;8.38;;;;;;;29.98;39.23;100271.41;5056539;28;20110;-84
2022/05/30 08:31:09;;;;;;;14.90;7.10;;;;;;;29.39;39.98;100281.88;5068537;28;20150;-85
2022/05/30 08:33:43;;;;;;;9.52;6.82;;;;;;;29.83;39.53;100264.97;5061143;28;20041;-83
2022/05/30 08:36:21;;;;;;;10.27;6.88;;;;;;;29.79;39.83;100255.59;5083692;28;20044;-85
2022/05/30 08:41:46;;;;;;;12.27;6.45;;;;;;;31.08;37.12;100270.94;5077424;28;20040;-91
2022/05/30 08:41:46;;;;;;;16.20;7.15;;;;;;;31.01;36.48;100276.09;5077596;28;20029;-93
2022/05/30 08:44:17;;;;;;;24.02;7.45;;;;;;;31.75;36.38;100279.56;5065761;28;20052;-89
2022/05/30 08:47:02;;;;;;;18.67;6.18;;;;;;;32.27;34.61;100272.84;5077830;28;20526;-85
2022/05/30 08:49:46;;;;;;;12.95;6.57;;;;;;;32.34;34.59;100267.66;5080271;28;20120;-84
2022/05/30 08:53:10;;;;;;;11.95;5.72;;;;;;;32.85;33.64;100276.63;5091587;28;20042;-85
2022/05/30 08:55:59;;;;;;;13.13;5.45;;;;;;;33.28;32.52;100250.97;5026946;28;20041;-84
2022/05/30 08:59:01;;;;;;;23.98;6.72;;;;;;;33.09;33.44;100270.72;5016707;28;20079;-83
2022/05/30 09:01:47;;;;;;;12.70;5.20;;;;;;;33.09;32.88;100265.97;5001878;28;20048;-91
2022/05/30 09:07:31;;;;;;;15.38;5.45;;;;;;;34.20;31.11;100282.44;5036575;28;20132;-89
2022/05/30 09:10:25;;;;;;;12.40;5.05;;;;;;;34.71;30.26;100291.09;5032726;28;20080;-90
2022/05/30 09:13:06;;;;;;;25.65;5.43;;;;;;;35.47;29.80;100270.75;5087432;28;20035;-90
2022/05/30 09:16:10;;;;;;;10.23;5.20;;;;;;;35.83;28.54;100290.94;5098261;28;20077;-90
2022/05/30 09:18:55;;;;;;;15.55;4.78;;;;;;;34.70;30.61;100305.38;5091370;28;20215;-86
2022/05/30 09:21:23;;;;;;;7.53;4.38;;;;;;;34.32;31.25;100303.28;5087489;28;20045;-87
2022/05/30 09:24:02;;;;;;;13.68;5.00;;;;;;;34.33;31.08;100279.81;5086395;28;20032;-89
2022/05/30 09:26:44;;;;;;;8.15;4.90;;;;;;;33.80;31.57;100301.25;5100423;28;20095;-90
2022/05/30 09:29:57;;;;;;;8.25;5.00;;;;;;;34.44;30.98;100304.25;5090195;28;20056;-89
2022/05/30 09:33:08;;;;;;;10.68;5.15;;;;;;;34.36;30.92;100319.03;5079784;28;20071;-88
2022/05/30 09:35:44;;;;;;;12.73;5.10;;;;;;;35.53;29.06;100292.91;5075967;28;20053;-89
2022/05/30 09:38:30;;;;;;;14.32;4.88;;;;;;;36.25;27.65;100285.34;5077363;28;20145;-85
2022/05/30 09:41:56;;;;;;;10.88;4.28;;;;;;;36.91;26.38;100290.91;5078164;28;20116;-88
2022/05/30 09:45:28;;;;;;;7.30;4.22;;;;;;;37.09;25.88;100296.31;5088945;28;20116;-86
2022/05/30 09:48:24;;;;;;;;;;;;;;;35.07;28.95;100315.78;5085735;28;20044;-84
2022/05/30 09:51:41;;;;;;;10.07;4.45;;;;;;;36.95;26.59;100314.28;5018243;28;20453;-88
2022/05/30 09:55:01;;;;;;;16.45;4.60;;;;;;;36.56;26.66;100305.28;4926547;29;20040;-87
2022/05/30 09:58:00;;;;;;;10.63;4.93;;;;;;;36.48;27.23;100316.53;4926852;29;20155;-86
2022/05/30 10:01:02;;;;;;;12.98;5.20;;;;;;;37.06;26.27;100323.06;4921105;29;20055;-85
2022/05/30 10:03:34;;;;;;;10.02;5.10;;;;;;;38.22;24.76;100320.78;4938042;28;20047;-87
2022/05/30 10:09:34;;;;;;;11.35;5.20;;;;;;;39.39;22.28;100315.13;5064684;23;20060;-88
2022/05/30 10:12:44;;;;;;;10.23;5.00;;;;;;;40.78;21.51;100311.69;4921142;29;20070;-91
2022/05/30 10:16:14;;;;;;;9.63;4.50;;;;;;;40.43;20.86;100309.78;4954708;29;20043;-94
2022/05/30 10:19:15;;;;;;;7.43;4.57;;;;;;;39.83;21.67;100327.03;4886346;29;20032;-89
2022/05/30 10:29:10;;;;;;;13.90;7.07;;;;;;;39.87;21.86;100349.59;4949531;29;20033;-90
2022/05/30 10:32:02;;;;;;;7.03;5.38;;;;;;;38.95;21.98;100340.47;4959923;29;20042;-91
2022/05/30 10:35:19;;;;;;;19.55;7.40;;;;;;;38.09;23.66;100349.22;4981257;28;20035;-91
2022/05/30 10:38:29;;;;;;;9.85;5.63;;;;;;;37.55;23.69;100342.72;4966900;28;20741;-89
2022/05/30 10:41:31;;;;;;;8.32;4.85;;;;;;;37.75;23.24;100314.91;4953633;29;20043;-87
2022/05/30 10:44:25;;;;;;;17.27;5.68;;;;;;;37.09;25.00;100344.78;4938222;28;20385;-90
2022/05/30 10:47:05;;;;;;;14.05;5.38;;;;;;;36.38;25.88;100342.97;4949354;29;20082;-88
2022/05/30 10:49:39;;;;;;;10.20;5.20;;;;;;;35.16;27.08;100328.91;4958456;28;20476;-93
2022/05/30 10:52:25;;;;;;;10.30;5.32;;;;;;;33.83;28.68;100312.59;4943679;29;20152;-91
2022/05/30 10:54:55;;;;;;;8.18;5.50;;;;;;;33.32;30.35;100341.94;4965535;28;20034;-92
2022/05/30 10:58:05;;;;;;;10.18;5.57;;;;;;;33.70;29.14;100323.88;4978499;28;20094;-91
2022/05/30 11:00:59;;;;;;;14.70;6.22;;;;;;;33.47;29.58;100325.91;4909376;29;20044;-91
2022/05/30 11:03:48;;;;;;;14.02;6.07;;;;;;;32.54;31.08;100333.91;4937388;29;20067;-91
2022/05/30 11:06:30;;;;;;;12.55;5.20;;;;;;;32.56;31.07;100317.72;4951111;28;20482;-92
2022/05/30 11:09:27;;;;;;;11.45;6.00;;;;;;;32.30;30.79;100319.47;4938303;29;20055;-89
2022/05/30 11:11:59;;;;;;;15.30;5.80;;;;;;;32.38;30.92;100335.41;4963939;28;20051;-90
2022/05/30 11:14:55;;;;;;;13.10;5.47;;;;;;;32.10;31.71;100317.97;4968825;28;20062;-90
2022/05/30 11:17:31;;;;;;;8.52;5.30;;;;;;;31.54;32.30;100325.59;4987329;28;20051;-89
2022/05/30 11:20:08;;;;;;;14.70;6.20;;;;;;;30.90;33.65;100333.72;4955768;29;20063;-92
2022/05/30 11:22:49;;;;;;;12.10;6.50;;;;;;;31.27;33.80;100341.09;4939533;29;20515;-91
2022/05/30 11:25:41;;;;;;;9.23;4.55;;;;;;;31.19;32.35;100339.03;4957706;28;20475;-91
2022/05/30 11:28:39;;;;;;;11.23;5.10;;;;;;;30.97;32.95;100342.47;4965726;29;20063;-91
2022/05/30 11:31:12;;;;;;;11.70;5.10;;;;;;;31.61;31.94;100339.03;4954435;29;20046;-91
2022/05/30 11:33:44;;;;;;;16.63;5.13;;;;;;;31.40;32.24;100331.16;4943690;29;20099;-91
2022/05/30 11:36:47;;;;;;;12.90;5.63;;;;;;;31.11;33.01;100350.84;4958963;28;20031;-91
2022/05/30 11:39:40;;;;;;;9.95;5.15;;;;;;;31.31;32.19;100342.13;4954549;28;20043;-93
2022/05/30 11:42:59;;;;;;;15.02;5.93;;;;;;;32.13;30.94;100347.97;4960666;28;20081;-91
2022/05/30 11:46:23;;;;;;;8.93;4.35;;;;;;;32.38;30.68;100340.97;4919726;29;20173;-91
2022/05/30 11:49:29;;;;;;;14.82;4.50;;;;;;;32.54;29.98;100347.00;4900598;29;20123;-90
2022/05/30 11:52:25;;;;;;;20.52;5.65;;;;;;;33.06;29.89;100346.53;4974592;28;20042;-91
2022/05/30 11:55:49;;;;;;;9.88;4.57;;;;;;;32.47;30.11;100350.19;4949027;29;20431;-92
2022/05/30 11:58:58;;;;;;;17.55;4.40;;;;;;;31.92;30.67;100350.34;4882728;29;20134;-92
2022/05/30 12:01:26;;;;;;;14.10;4.25;;;;;;;31.66;31.16;100348.13;4887799;29;20087;-90
2022/05/30 12:04:11;;;;;;;10.75;4.57;;;;;;;31.55;30.98;100346.69;4941840;29;20168;-93
2022/05/30 12:07:16;;;;;;;8.70;4.00;;;;;;;31.97;30.13;100353.03;4952331;29;20121;-90
2022/05/30 12:10:00;;;;;;;8.80;4.00;;;;;;;32.18;30.57;100359.78;4960472;28;20091;-87
2022/05/30 12:13:08;;;;;;;18.42;4.78;;;;;;;32.55;31.21;100351.44;4966045;28;20047;-88
2022/05/30 12:16:11;;;;;;;14.10;4.70;;;;;;;32.42;29.97;100350.31;4934797;28;20130;-91
2022/05/30 12:24:49;;;;;;;11.68;4.30;;;;;;;31.84;31.18;100356.63;4951967;29;20488;-86
2022/05/30 12:27:37;;;;;;;7.45;4.40;;;;;;;32.01;30.50;100365.19;4935477;29;20106;-87